sensor_id;sensor_type;location;lat;lon;timestamp;P1;durP1;ratioP1;P2;durP2;ratioP2
15049;SDS011;7622;42.724;23.250;2024-01-27T00:01:09;5.50;;;3.00;;
15049;SDS011;7622;42.724;23.250;2024-01-27T00:03:38;6.10;;;3.70;;
15049;SDS011;7622;42.724;23.250;2024-01-27T00:06:04;3.73;;;2.70;;
15049;SDS011;7622;42.724;23.250;2024-01-27T00:08:31;7.63;;;3.27;;
15049;SDS011;7622;42.724;23.250;2024-01-27T00:10:58;4.77;;;3.87;;
15049;SDS011;7622;42.724;23.250;2024-01-27T00:13:25;3.87;;;2.93;;
15049;SDS011;7622;42.724;23.250;2024-01-27T00:15:51;6.23;;;2.80;;
15049;SDS011;7622;42.724;23.250;2024-01-27T00:18:19;7.53;;;3.50;;
15049;SDS011;7622;42.724;23.250;2024-01-27T00:20:47;7.33;;;3.90;;
15049;SDS011;7622;42.724;23.250;2024-01-27T00:23:14;7.37;;;3.43;;
15049;SDS011;7622;42.724;23.250;2024-01-27T00:25:41;6.90;;;2.90;;
15049;SDS011;7622;42.724;23.250;2024-01-27T00:28:08;5.67;;;3.00;;
15049;SDS011;7622;42.724;23.250;2024-01-27T00:30:34;3.63;;;3.10;;
15049;SDS011;7622;42.724;23.250;2024-01-27T00:33:01;7.30;;;3.20;;
15049;SDS011;7622;42.724;23.250;2024-01-27T00:35:28;3.53;;;2.90;;
15049;SDS011;7622;42.724;23.250;2024-01-27T00:37:56;8.20;;;2.93;;
15049;SDS011;7622;42.724;23.250;2024-01-27T00:40:23;7.90;;;3.20;;
15049;SDS011;7622;42.724;23.250;2024-01-27T00:42:49;15.00;;;4.10;;
15049;SDS011;7622;42.724;23.250;2024-01-27T00:45:16;4.57;;;2.87;;
15049;SDS011;7622;42.724;23.250;2024-01-27T00:47:46;4.93;;;3.07;;
15049;SDS011;7622;42.724;23.250;2024-01-27T00:50:15;10.73;;;3.40;;
15049;SDS011;7622;42.724;23.250;2024-01-27T00:52:42;8.53;;;3.00;;
15049;SDS011;7622;42.724;23.250;2024-01-27T00:55:10;5.60;;;3.33;;
15049;SDS011;7622;42.724;23.250;2024-01-27T00:57:37;7.13;;;3.53;;
15049;SDS011;7622;42.724;23.250;2024-01-27T01:00:04;7.77;;;3.27;;
15049;SDS011;7622;42.724;23.250;2024-01-27T01:02:33;11.07;;;3.63;;
15049;SDS011;7622;42.724;23.250;2024-01-27T01:05:04;7.20;;;3.27;;
15049;SDS011;7622;42.724;23.250;2024-01-27T01:07:34;4.10;;;3.43;;
15049;SDS011;7622;42.724;23.250;2024-01-27T01:10:01;6.27;;;3.70;;
15049;SDS011;7622;42.724;23.250;2024-01-27T01:12:29;8.77;;;3.70;;
15049;SDS011;7622;42.724;23.250;2024-01-27T01:14:56;8.07;;;3.23;;
15049;SDS011;7622;42.724;23.250;2024-01-27T01:17:23;5.97;;;3.43;;
15049;SDS011;7622;42.724;23.250;2024-01-27T01:19:50;7.87;;;4.23;;
15049;SDS011;7622;42.724;23.250;2024-01-27T01:22:16;8.30;;;3.70;;
15049;SDS011;7622;42.724;23.250;2024-01-27T01:24:43;8.17;;;3.20;;
15049;SDS011;7622;42.724;23.250;2024-01-27T01:27:10;5.60;;;3.33;;
15049;SDS011;7622;42.724;23.250;2024-01-27T01:29:38;10.23;;;3.37;;
15049;SDS011;7622;42.724;23.250;2024-01-27T01:32:05;7.30;;;3.47;;
15049;SDS011;7622;42.724;23.250;2024-01-27T01:34:32;8.43;;;4.10;;
15049;SDS011;7622;42.724;23.250;2024-01-27T01:36:59;5.07;;;3.30;;
15049;SDS011;7622;42.724;23.250;2024-01-27T01:39:27;6.20;;;3.53;;
15049;SDS011;7622;42.724;23.250;2024-01-27T01:41:53;8.63;;;3.33;;
15049;SDS011;7622;42.724;23.250;2024-01-27T01:44:20;6.90;;;2.93;;
15049;SDS011;7622;42.724;23.250;2024-01-27T01:46:48;3.93;;;2.50;;
15049;SDS011;7622;42.724;23.250;2024-01-27T01:49:15;10.13;;;3.30;;
15049;SDS011;7622;42.724;23.250;2024-01-27T01:51:42;8.97;;;3.17;;
15049;SDS011;7622;42.724;23.250;2024-01-27T01:54:09;7.43;;;3.60;;
15049;SDS011;7622;42.724;23.250;2024-01-27T01:56:36;5.30;;;3.27;;
15049;SDS011;7622;42.724;23.250;2024-01-27T01:59:03;8.00;;;3.50;;
15049;SDS011;7622;42.724;23.250;2024-01-27T02:01:30;11.03;;;4.63;;
15049;SDS011;7622;42.724;23.250;2024-01-27T02:03:58;10.33;;;3.93;;
15049;SDS011;7622;42.724;23.250;2024-01-27T02:06:25;6.57;;;3.33;;
15049;SDS011;7622;42.724;23.250;2024-01-27T02:08:51;4.30;;;3.90;;
15049;SDS011;7622;42.724;23.250;2024-01-27T02:11:18;6.50;;;3.60;;
15049;SDS011;7622;42.724;23.250;2024-01-27T02:13:45;7.33;;;3.70;;
15049;SDS011;7622;42.724;23.250;2024-01-27T02:16:13;9.10;;;4.67;;
15049;SDS011;7622;42.724;23.250;2024-01-27T02:18:42;8.57;;;3.70;;
15049;SDS011;7622;42.724;23.250;2024-01-27T02:21:10;7.00;;;4.17;;
15049;SDS011;7622;42.724;23.250;2024-01-27T02:23:37;10.20;;;4.23;;
15049;SDS011;7622;42.724;23.250;2024-01-27T02:26:06;10.67;;;4.37;;
15049;SDS011;7622;42.724;23.250;2024-01-27T02:28:32;7.87;;;3.97;;
15049;SDS011;7622;42.724;23.250;2024-01-27T02:31:00;10.87;;;4.00;;
15049;SDS011;7622;42.724;23.250;2024-01-27T02:33:27;5.47;;;4.10;;
15049;SDS011;7622;42.724;23.250;2024-01-27T02:35:54;10.30;;;4.00;;
15049;SDS011;7622;42.724;23.250;2024-01-27T02:38:21;7.67;;;4.17;;
15049;SDS011;7622;42.724;23.250;2024-01-27T02:40:48;7.77;;;4.47;;
15049;SDS011;7622;42.724;23.250;2024-01-27T02:43:16;8.87;;;4.47;;
15049;SDS011;7622;42.724;23.250;2024-01-27T02:45:42;6.67;;;3.30;;
15049;SDS011;7622;42.724;23.250;2024-01-27T02:48:09;5.43;;;3.13;;
15049;SDS011;7622;42.724;23.250;2024-01-27T02:50:36;6.97;;;3.13;;
15049;SDS011;7622;42.724;23.250;2024-01-27T02:53:03;3.67;;;2.40;;
15049;SDS011;7622;42.724;23.250;2024-01-27T02:55:29;5.67;;;2.53;;
15049;SDS011;7622;42.724;23.250;2024-01-27T02:57:56;8.17;;;3.10;;
15049;SDS011;7622;42.724;23.250;2024-01-27T03:00:24;5.40;;;3.50;;
15049;SDS011;7622;42.724;23.250;2024-01-27T03:02:51;6.27;;;3.33;;
15049;SDS011;7622;42.724;23.250;2024-01-27T03:05:18;5.30;;;3.10;;
15049;SDS011;7622;42.724;23.250;2024-01-27T03:07:45;8.50;;;3.73;;
15049;SDS011;7622;42.724;23.250;2024-01-27T03:10:11;7.60;;;3.17;;
15049;SDS011;7622;42.724;23.250;2024-01-27T03:12:38;8.13;;;2.73;;
15049;SDS011;7622;42.724;23.250;2024-01-27T03:15:05;4.93;;;2.83;;
15049;SDS011;7622;42.724;23.250;2024-01-27T03:17:34;4.77;;;2.43;;
15049;SDS011;7622;42.724;23.250;2024-01-27T03:20:01;2.87;;;1.90;;
15049;SDS011;7622;42.724;23.250;2024-01-27T03:22:28;5.80;;;3.07;;
15049;SDS011;7622;42.724;23.250;2024-01-27T03:24:54;5.07;;;3.13;;
15049;SDS011;7622;42.724;23.250;2024-01-27T03:27:21;7.07;;;3.20;;
15049;SDS011;7622;42.724;23.250;2024-01-27T03:29:48;7.23;;;2.70;;
15049;SDS011;7622;42.724;23.250;2024-01-27T03:32:14;7.30;;;3.00;;
15049;SDS011;7622;42.724;23.250;2024-01-27T03:34:44;5.67;;;2.20;;
15049;SDS011;7622;42.724;23.250;2024-01-27T03:37:11;5.30;;;2.47;;
15049;SDS011;7622;42.724;23.250;2024-01-27T03:39:38;4.57;;;2.60;;
15049;SDS011;7622;42.724;23.250;2024-01-27T03:42:07;8.97;;;4.50;;
15049;SDS011;7622;42.724;23.250;2024-01-27T03:44:34;9.53;;;4.77;;
15049;SDS011;7622;42.724;23.250;2024-01-27T03:47:01;11.30;;;5.03;;
15049;SDS011;7622;42.724;23.250;2024-01-27T03:49:28;12.90;;;6.37;;
15049;SDS011;7622;42.724;23.250;2024-01-27T03:51:56;14.03;;;6.10;;
15049;SDS011;7622;42.724;23.250;2024-01-27T03:54:22;17.87;;;6.60;;
15049;SDS011;7622;42.724;23.250;2024-01-27T03:56:49;11.83;;;5.70;;
15049;SDS011;7622;42.724;23.250;2024-01-27T03:59:16;8.90;;;5.50;;
15049;SDS011;7622;42.724;23.250;2024-01-27T04:01:42;10.37;;;5.03;;
15049;SDS011;7622;42.724;23.250;2024-01-27T04:04:10;10.50;;;5.27;;
15049;SDS011;7622;42.724;23.250;2024-01-27T04:06:36;10.30;;;5.20;;
15049;SDS011;7622;42.724;23.250;2024-01-27T04:09:05;12.50;;;5.37;;
15049;SDS011;7622;42.724;23.250;2024-01-27T04:11:34;9.20;;;5.33;;
15049;SDS011;7622;42.724;23.250;2024-01-27T04:14:03;12.20;;;5.93;;
15049;SDS011;7622;42.724;23.250;2024-01-27T04:16:30;9.60;;;4.73;;
15049;SDS011;7622;42.724;23.250;2024-01-27T04:18:57;9.40;;;5.63;;
15049;SDS011;7622;42.724;23.250;2024-01-27T04:21:24;12.23;;;5.87;;
15049;SDS011;7622;42.724;23.250;2024-01-27T04:23:51;9.37;;;5.10;;
15049;SDS011;7622;42.724;23.250;2024-01-27T04:26:19;8.47;;;5.53;;
15049;SDS011;7622;42.724;23.250;2024-01-27T04:28:45;10.53;;;5.77;;
15049;SDS011;7622;42.724;23.250;2024-01-27T04:31:12;13.53;;;5.10;;
15049;SDS011;7622;42.724;23.250;2024-01-27T04:33:39;10.73;;;5.10;;
15049;SDS011;7622;42.724;23.250;2024-01-27T04:36:06;8.23;;;4.23;;
15049;SDS011;7622;42.724;23.250;2024-01-27T04:38:34;7.43;;;4.20;;
15049;SDS011;7622;42.724;23.250;2024-01-27T04:41:00;7.50;;;3.73;;
15049;SDS011;7622;42.724;23.250;2024-01-27T04:43:29;5.53;;;3.23;;
15049;SDS011;7622;42.724;23.250;2024-01-27T04:45:55;9.97;;;4.53;;
15049;SDS011;7622;42.724;23.250;2024-01-27T04:48:22;9.90;;;4.17;;
15049;SDS011;7622;42.724;23.250;2024-01-27T04:50:49;6.70;;;4.13;;
15049;SDS011;7622;42.724;23.250;2024-01-27T04:53:16;19.77;;;11.00;;
15049;SDS011;7622;42.724;23.250;2024-01-27T04:55:42;11.63;;;3.73;;
15049;SDS011;7622;42.724;23.250;2024-01-27T04:58:09;6.87;;;4.23;;
15049;SDS011;7622;42.724;23.250;2024-01-27T05:00:37;7.73;;;3.80;;
15049;SDS011;7622;42.724;23.250;2024-01-27T05:03:04;9.93;;;3.00;;
15049;SDS011;7622;42.724;23.250;2024-01-27T05:05:32;6.83;;;3.47;;
15049;SDS011;7622;42.724;23.250;2024-01-27T05:07:59;3.33;;;2.93;;
15049;SDS011;7622;42.724;23.250;2024-01-27T05:10:26;10.63;;;4.33;;
15049;SDS011;7622;42.724;23.250;2024-01-27T05:12:53;3.90;;;3.60;;
15049;SDS011;7622;42.724;23.250;2024-01-27T05:15:21;8.07;;;4.83;;
15049;SDS011;7622;42.724;23.250;2024-01-27T05:17:49;5.80;;;4.00;;
15049;SDS011;7622;42.724;23.250;2024-01-27T05:20:16;4.90;;;3.53;;
15049;SDS011;7622;42.724;23.250;2024-01-27T05:22:44;8.17;;;3.60;;
15049;SDS011;7622;42.724;23.250;2024-01-27T05:25:10;6.10;;;3.10;;
15049;SDS011;7622;42.724;23.250;2024-01-27T05:27:37;7.13;;;2.90;;
15049;SDS011;7622;42.724;23.250;2024-01-27T05:30:05;3.93;;;3.13;;
15049;SDS011;7622;42.724;23.250;2024-01-27T05:32:32;7.10;;;2.80;;
15049;SDS011;7622;42.724;23.250;2024-01-27T05:35:00;7.27;;;2.57;;
15049;SDS011;7622;42.724;23.250;2024-01-27T05:37:28;3.63;;;2.90;;
15049;SDS011;7622;42.724;23.250;2024-01-27T05:39:55;4.93;;;2.77;;
15049;SDS011;7622;42.724;23.250;2024-01-27T05:42:21;3.27;;;2.67;;
15049;SDS011;7622;42.724;23.250;2024-01-27T05:44:48;12.03;;;4.73;;
15049;SDS011;7622;42.724;23.250;2024-01-27T05:47:14;6.20;;;3.03;;
15049;SDS011;7622;42.724;23.250;2024-01-27T05:49:41;22.70;;;10.67;;
15049;SDS011;7622;42.724;23.250;2024-01-27T05:52:09;10.20;;;3.30;;
15049;SDS011;7622;42.724;23.250;2024-01-27T05:54:36;10.27;;;4.47;;
15049;SDS011;7622;42.724;23.250;2024-01-27T05:57:03;5.57;;;3.00;;
15049;SDS011;7622;42.724;23.250;2024-01-27T05:59:29;6.40;;;3.30;;
15049;SDS011;7622;42.724;23.250;2024-01-27T06:01:56;7.47;;;3.77;;
15049;SDS011;7622;42.724;23.250;2024-01-27T06:04:23;11.73;;;5.40;;
15049;SDS011;7622;42.724;23.250;2024-01-27T06:06:50;15.17;;;5.87;;
15049;SDS011;7622;42.724;23.250;2024-01-27T06:09:18;9.53;;;4.90;;
15049;SDS011;7622;42.724;23.250;2024-01-27T06:11:44;10.53;;;5.23;;
15049;SDS011;7622;42.724;23.250;2024-01-27T06:14:11;9.10;;;6.00;;
15049;SDS011;7622;42.724;23.250;2024-01-27T06:16:38;8.73;;;5.63;;
15049;SDS011;7622;42.724;23.250;2024-01-27T06:19:05;12.60;;;7.57;;
15049;SDS011;7622;42.724;23.250;2024-01-27T06:21:31;12.27;;;6.63;;
15049;SDS011;7622;42.724;23.250;2024-01-27T06:23:58;7.03;;;4.47;;
15049;SDS011;7622;42.724;23.250;2024-01-27T06:26:26;4.10;;;3.63;;
15049;SDS011;7622;42.724;23.250;2024-01-27T06:28:53;7.10;;;4.03;;
15049;SDS011;7622;42.724;23.250;2024-01-27T06:31:19;12.00;;;4.30;;
15049;SDS011;7622;42.724;23.250;2024-01-27T06:33:46;4.70;;;3.70;;
15049;SDS011;7622;42.724;23.250;2024-01-27T06:36:13;8.63;;;3.63;;
15049;SDS011;7622;42.724;23.250;2024-01-27T06:38:40;7.17;;;3.87;;
15049;SDS011;7622;42.724;23.250;2024-01-27T06:41:07;4.80;;;3.43;;
15049;SDS011;7622;42.724;23.250;2024-01-27T06:43:35;5.47;;;3.70;;
15049;SDS011;7622;42.724;23.250;2024-01-27T06:46:02;4.30;;;3.70;;
15049;SDS011;7622;42.724;23.250;2024-01-27T06:48:28;5.03;;;3.20;;
15049;SDS011;7622;42.724;23.250;2024-01-27T06:50:55;9.43;;;3.73;;
15049;SDS011;7622;42.724;23.250;2024-01-27T06:53:22;5.83;;;3.20;;
15049;SDS011;7622;42.724;23.250;2024-01-27T06:55:48;4.00;;;3.10;;
15049;SDS011;7622;42.724;23.250;2024-01-27T06:58:15;5.40;;;3.10;;
15049;SDS011;7622;42.724;23.250;2024-01-27T07:00:43;2.90;;;2.60;;
15049;SDS011;7622;42.724;23.250;2024-01-27T07:03:11;4.20;;;2.80;;
15049;SDS011;7622;42.724;23.250;2024-01-27T07:05:37;4.17;;;2.53;;
15049;SDS011;7622;42.724;23.250;2024-01-27T07:08:06;5.63;;;2.73;;
15049;SDS011;7622;42.724;23.250;2024-01-27T07:10:33;7.27;;;4.70;;
15049;SDS011;7622;42.724;23.250;2024-01-27T07:13:00;2.60;;;2.40;;
15049;SDS011;7622;42.724;23.250;2024-01-27T07:15:27;3.87;;;2.40;;
15049;SDS011;7622;42.724;23.250;2024-01-27T07:17:55;3.10;;;2.10;;
15049;SDS011;7622;42.724;23.250;2024-01-27T07:20:22;2.03;;;1.90;;
15049;SDS011;7622;42.724;23.250;2024-01-27T07:22:49;3.13;;;2.13;;
15049;SDS011;7622;42.724;23.250;2024-01-27T07:25:16;2.10;;;1.90;;
15049;SDS011;7622;42.724;23.250;2024-01-27T07:27:43;3.30;;;1.70;;
15049;SDS011;7622;42.724;23.250;2024-01-27T07:30:10;2.43;;;1.63;;
15049;SDS011;7622;42.724;23.250;2024-01-27T07:32:37;2.23;;;1.97;;
15049;SDS011;7622;42.724;23.250;2024-01-27T07:35:06;3.87;;;2.60;;
15049;SDS011;7622;42.724;23.250;2024-01-27T07:37:33;2.20;;;2.10;;
15049;SDS011;7622;42.724;23.250;2024-01-27T07:39:59;2.57;;;2.03;;
15049;SDS011;7622;42.724;23.250;2024-01-27T07:42:27;2.20;;;1.80;;
15049;SDS011;7622;42.724;23.250;2024-01-27T07:44:53;1.80;;;1.70;;
15049;SDS011;7622;42.724;23.250;2024-01-27T07:47:20;2.30;;;1.73;;
15049;SDS011;7622;42.724;23.250;2024-01-27T07:49:47;2.47;;;1.70;;
15049;SDS011;7622;42.724;23.250;2024-01-27T07:52:15;2.27;;;1.80;;
15049;SDS011;7622;42.724;23.250;2024-01-27T07:54:42;2.57;;;1.90;;
15049;SDS011;7622;42.724;23.250;2024-01-27T07:57:09;2.90;;;1.83;;
15049;SDS011;7622;42.724;23.250;2024-01-27T07:59:37;3.13;;;2.40;;
15049;SDS011;7622;42.724;23.250;2024-01-27T08:02:03;3.00;;;2.40;;
15049;SDS011;7622;42.724;23.250;2024-01-27T08:04:31;3.30;;;2.33;;
15049;SDS011;7622;42.724;23.250;2024-01-27T08:06:58;3.73;;;2.63;;
15049;SDS011;7622;42.724;23.250;2024-01-27T08:09:26;3.33;;;2.47;;
15049;SDS011;7622;42.724;23.250;2024-01-27T08:11:53;2.47;;;2.27;;
15049;SDS011;7622;42.724;23.250;2024-01-27T08:14:20;2.40;;;2.20;;
15049;SDS011;7622;42.724;23.250;2024-01-27T08:16:47;2.83;;;2.63;;
15049;SDS011;7622;42.724;23.250;2024-01-27T08:19:14;4.83;;;2.70;;
15049;SDS011;7622;42.724;23.250;2024-01-27T08:21:45;2.80;;;2.53;;
15049;SDS011;7622;42.724;23.250;2024-01-27T08:24:12;2.47;;;2.27;;
15049;SDS011;7622;42.724;23.250;2024-01-27T08:26:40;3.20;;;2.90;;
15049;SDS011;7622;42.724;23.250;2024-01-27T08:29:07;3.87;;;3.13;;
15049;SDS011;7622;42.724;23.250;2024-01-27T08:31:34;4.30;;;2.30;;
15049;SDS011;7622;42.724;23.250;2024-01-27T08:34:03;2.10;;;2.00;;
15049;SDS011;7622;42.724;23.250;2024-01-27T08:36:30;2.63;;;2.23;;
15049;SDS011;7622;42.724;23.250;2024-01-27T08:38:57;3.43;;;2.30;;
15049;SDS011;7622;42.724;23.250;2024-01-27T08:41:24;2.97;;;2.60;;
15049;SDS011;7622;42.724;23.250;2024-01-27T08:43:52;2.33;;;1.90;;
15049;SDS011;7622;42.724;23.250;2024-01-27T08:46:19;2.07;;;1.90;;
15049;SDS011;7622;42.724;23.250;2024-01-27T08:48:47;2.10;;;1.93;;
15049;SDS011;7622;42.724;23.250;2024-01-27T08:51:14;2.83;;;2.60;;
15049;SDS011;7622;42.724;23.250;2024-01-27T08:53:41;2.73;;;2.47;;
15049;SDS011;7622;42.724;23.250;2024-01-27T08:56:13;2.03;;;1.93;;
15049;SDS011;7622;42.724;23.250;2024-01-27T08:58:40;2.97;;;2.20;;
15049;SDS011;7622;42.724;23.250;2024-01-27T09:01:09;3.00;;;2.33;;
15049;SDS011;7622;42.724;23.250;2024-01-27T09:03:38;3.03;;;1.90;;
15049;SDS011;7622;42.724;23.250;2024-01-27T09:06:05;2.97;;;2.13;;
15049;SDS011;7622;42.724;23.250;2024-01-27T09:08:33;1.63;;;1.53;;
15049;SDS011;7622;42.724;23.250;2024-01-27T09:11:00;2.43;;;2.20;;
15049;SDS011;7622;42.724;23.250;2024-01-27T09:13:27;2.10;;;2.00;;
15049;SDS011;7622;42.724;23.250;2024-01-27T09:15:54;2.57;;;2.37;;
15049;SDS011;7622;42.724;23.250;2024-01-27T09:18:23;2.70;;;2.50;;
15049;SDS011;7622;42.724;23.250;2024-01-27T09:20:49;2.37;;;2.17;;
15049;SDS011;7622;42.724;23.250;2024-01-27T09:23:16;2.73;;;2.40;;
15049;SDS011;7622;42.724;23.250;2024-01-27T09:25:43;2.60;;;2.40;;
15049;SDS011;7622;42.724;23.250;2024-01-27T09:28:10;2.93;;;2.70;;
15049;SDS011;7622;42.724;23.250;2024-01-27T09:30:37;3.07;;;2.87;;
15049;SDS011;7622;42.724;23.250;2024-01-27T09:33:04;2.50;;;2.30;;
15049;SDS011;7622;42.724;23.250;2024-01-27T09:35:32;3.10;;;2.67;;
15049;SDS011;7622;42.724;23.250;2024-01-27T09:37:59;3.07;;;2.87;;
15049;SDS011;7622;42.724;23.250;2024-01-27T09:40:26;2.23;;;1.93;;
15049;SDS011;7622;42.724;23.250;2024-01-27T09:42:52;2.60;;;2.40;;
15049;SDS011;7622;42.724;23.250;2024-01-27T09:45:24;5.07;;;2.20;;
15049;SDS011;7622;42.724;23.250;2024-01-27T09:47:51;2.13;;;2.03;;
15049;SDS011;7622;42.724;23.250;2024-01-27T09:50:19;2.70;;;2.53;;
15049;SDS011;7622;42.724;23.250;2024-01-27T09:52:49;4.67;;;1.80;;
15049;SDS011;7622;42.724;23.250;2024-01-27T09:55:15;2.10;;;2.00;;
15049;SDS011;7622;42.724;23.250;2024-01-27T09:57:42;2.40;;;2.20;;
15049;SDS011;7622;42.724;23.250;2024-01-27T10:00:11;1.73;;;1.63;;
15049;SDS011;7622;42.724;23.250;2024-01-27T10:02:41;1.60;;;1.50;;
15049;SDS011;7622;42.724;23.250;2024-01-27T10:05:09;1.87;;;1.77;;
15049;SDS011;7622;42.724;23.250;2024-01-27T10:07:35;1.50;;;1.40;;
15049;SDS011;7622;42.724;23.250;2024-01-27T10:10:04;2.10;;;1.60;;
15049;SDS011;7622;42.724;23.250;2024-01-27T10:12:32;2.57;;;2.40;;
15049;SDS011;7622;42.724;23.250;2024-01-27T10:15:04;4.80;;;1.90;;
15049;SDS011;7622;42.724;23.250;2024-01-27T10:17:31;1.80;;;1.70;;
15049;SDS011;7622;42.724;23.250;2024-01-27T10:20:01;2.57;;;2.37;;
15049;SDS011;7622;42.724;23.250;2024-01-27T10:22:36;1.90;;;1.80;;
15049;SDS011;7622;42.724;23.250;2024-01-27T10:25:05;2.10;;;2.00;;
15049;SDS011;7622;42.724;23.250;2024-01-27T10:27:33;1.53;;;1.43;;
15049;SDS011;7622;42.724;23.250;2024-01-27T10:30:00;1.87;;;1.77;;
15049;SDS011;7622;42.724;23.250;2024-01-27T10:32:27;2.10;;;1.53;;
15049;SDS011;7622;42.724;23.250;2024-01-27T10:35:01;1.60;;;1.53;;
15049;SDS011;7622;42.724;23.250;2024-01-27T10:37:28;2.10;;;2.00;;
15049;SDS011;7622;42.724;23.250;2024-01-27T10:39:59;1.60;;;1.50;;
15049;SDS011;7622;42.724;23.250;2024-01-27T10:42:28;1.87;;;1.77;;
15049;SDS011;7622;42.724;23.250;2024-01-27T10:44:59;2.67;;;2.00;;
15049;SDS011;7622;42.724;23.250;2024-01-27T10:47:28;1.37;;;1.37;;
15049;SDS011;7622;42.724;23.250;2024-01-27T10:49:56;1.67;;;1.57;;
15049;SDS011;7622;42.724;23.250;2024-01-27T10:52:24;1.50;;;1.50;;
15049;SDS011;7622;42.724;23.250;2024-01-27T10:54:55;1.60;;;1.50;;
15049;SDS011;7622;42.724;23.250;2024-01-27T10:57:26;2.30;;;1.60;;
15049;SDS011;7622;42.724;23.250;2024-01-27T10:59:55;1.50;;;1.40;;
15049;SDS011;7622;42.724;23.250;2024-01-27T11:02:23;4.30;;;2.03;;
15049;SDS011;7622;42.724;23.250;2024-01-27T11:04:50;1.70;;;1.60;;
15049;SDS011;7622;42.724;23.250;2024-01-27T11:07:18;2.37;;;2.27;;
15049;SDS011;7622;42.724;23.250;2024-01-27T11:09:46;1.70;;;1.60;;
15049;SDS011;7622;42.724;23.250;2024-01-27T11:12:16;2.10;;;1.87;;
15049;SDS011;7622;42.724;23.250;2024-01-27T11:14:46;2.27;;;2.10;;
15049;SDS011;7622;42.724;23.250;2024-01-27T11:17:13;2.27;;;1.90;;
15049;SDS011;7622;42.724;23.250;2024-01-27T11:19:40;2.30;;;2.20;;
15049;SDS011;7622;42.724;23.250;2024-01-27T11:22:07;2.10;;;2.00;;
15049;SDS011;7622;42.724;23.250;2024-01-27T11:24:34;2.20;;;2.10;;
15049;SDS011;7622;42.724;23.250;2024-01-27T11:27:02;2.00;;;1.90;;
15049;SDS011;7622;42.724;23.250;2024-01-27T11:29:29;1.93;;;1.83;;
15049;SDS011;7622;42.724;23.250;2024-01-27T11:31:59;2.07;;;1.97;;
15049;SDS011;7622;42.724;23.250;2024-01-27T11:34:27;2.40;;;2.20;;
15049;SDS011;7622;42.724;23.250;2024-01-27T11:36:54;4.83;;;2.57;;
15049;SDS011;7622;42.724;23.250;2024-01-27T11:39:25;2.27;;;2.17;;
15049;SDS011;7622;42.724;23.250;2024-01-27T11:41:53;3.33;;;3.07;;
15049;SDS011;7622;42.724;23.250;2024-01-27T11:44:30;4.77;;;2.83;;
15049;SDS011;7622;42.724;23.250;2024-01-27T11:46:56;4.73;;;3.87;;
15049;SDS011;7622;42.724;23.250;2024-01-27T11:49:25;2.30;;;2.10;;
15049;SDS011;7622;42.724;23.250;2024-01-27T11:51:51;3.20;;;2.13;;
15049;SDS011;7622;42.724;23.250;2024-01-27T11:54:18;2.50;;;2.30;;
15049;SDS011;7622;42.724;23.250;2024-01-27T11:56:45;2.03;;;1.93;;
15049;SDS011;7622;42.724;23.250;2024-01-27T11:59:12;2.57;;;2.33;;
15049;SDS011;7622;42.724;23.250;2024-01-27T12:01:39;3.00;;;2.10;;
15049;SDS011;7622;42.724;23.250;2024-01-27T12:04:07;2.07;;;1.97;;
15049;SDS011;7622;42.724;23.250;2024-01-27T12:06:35;2.13;;;2.03;;
15049;SDS011;7622;42.724;23.250;2024-01-27T12:09:04;2.33;;;2.20;;
15049;SDS011;7622;42.724;23.250;2024-01-27T12:11:37;2.17;;;2.07;;
15049;SDS011;7622;42.724;23.250;2024-01-27T12:14:06;3.53;;;1.83;;
15049;SDS011;7622;42.724;23.250;2024-01-27T12:16:35;2.50;;;2.30;;
15049;SDS011;7622;42.724;23.250;2024-01-27T12:19:04;1.73;;;1.53;;
15049;SDS011;7622;42.724;23.250;2024-01-27T12:21:32;1.57;;;1.47;;
15049;SDS011;7622;42.724;23.250;2024-01-27T12:23:59;3.73;;;2.10;;
15049;SDS011;7622;42.724;23.250;2024-01-27T12:26:27;1.80;;;1.70;;
15049;SDS011;7622;42.724;23.250;2024-01-27T12:28:57;1.60;;;1.50;;
15049;SDS011;7622;42.724;23.250;2024-01-27T12:31:27;1.47;;;1.37;;
15049;SDS011;7622;42.724;23.250;2024-01-27T12:33:55;1.70;;;1.60;;
15049;SDS011;7622;42.724;23.250;2024-01-27T12:36:24;1.63;;;1.53;;
15049;SDS011;7622;42.724;23.250;2024-01-27T12:38:55;6.27;;;1.97;;
15049;SDS011;7622;42.724;23.250;2024-01-27T12:41:23;1.50;;;1.40;;
15049;SDS011;7622;42.724;23.250;2024-01-27T12:43:50;4.00;;;1.60;;
15049;SDS011;7622;42.724;23.250;2024-01-27T12:46:17;1.80;;;1.70;;
15049;SDS011;7622;42.724;23.250;2024-01-27T12:48:44;1.60;;;1.50;;
15049;SDS011;7622;42.724;23.250;2024-01-27T12:51:11;1.90;;;1.80;;
15049;SDS011;7622;42.724;23.250;2024-01-27T12:53:38;1.50;;;1.50;;
15049;SDS011;7622;42.724;23.250;2024-01-27T12:56:10;1.63;;;1.40;;
15049;SDS011;7622;42.724;23.250;2024-01-27T12:58:37;2.60;;;1.70;;
15049;SDS011;7622;42.724;23.250;2024-01-27T13:01:05;2.70;;;1.60;;
15049;SDS011;7622;42.724;23.250;2024-01-27T13:03:32;1.83;;;1.73;;
15049;SDS011;7622;42.724;23.250;2024-01-27T13:05:59;1.70;;;1.70;;
15049;SDS011;7622;42.724;23.250;2024-01-27T13:08:25;1.83;;;1.50;;
15049;SDS011;7622;42.724;23.250;2024-01-27T13:10:52;1.80;;;1.70;;
15049;SDS011;7622;42.724;23.250;2024-01-27T13:13:21;1.33;;;1.20;;
15049;SDS011;7622;42.724;23.250;2024-01-27T13:15:48;1.60;;;1.50;;
15049;SDS011;7622;42.724;23.250;2024-01-27T13:18:14;2.30;;;2.10;;
15049;SDS011;7622;42.724;23.250;2024-01-27T13:20:41;2.97;;;1.77;;
15049;SDS011;7622;42.724;23.250;2024-01-27T13:23:08;2.53;;;1.87;;
15049;SDS011;7622;42.724;23.250;2024-01-27T13:25:35;2.03;;;1.90;;
15049;SDS011;7622;42.724;23.250;2024-01-27T13:28:02;2.73;;;2.30;;
15049;SDS011;7622;42.724;23.250;2024-01-27T13:30:30;3.47;;;2.00;;
15049;SDS011;7622;42.724;23.250;2024-01-27T13:32:57;1.53;;;1.43;;
15049;SDS011;7622;42.724;23.250;2024-01-27T13:35:24;1.20;;;1.20;;
15049;SDS011;7622;42.724;23.250;2024-01-27T13:37:51;1.73;;;1.63;;
15049;SDS011;7622;42.724;23.250;2024-01-27T13:40:17;1.83;;;1.73;;
15049;SDS011;7622;42.724;23.250;2024-01-27T13:42:44;2.77;;;2.40;;
15049;SDS011;7622;42.724;23.250;2024-01-27T13:45:11;1.70;;;1.60;;
15049;SDS011;7622;42.724;23.250;2024-01-27T13:47:39;2.00;;;1.57;;
15049;SDS011;7622;42.724;23.250;2024-01-27T13:50:06;1.50;;;1.40;;
15049;SDS011;7622;42.724;23.250;2024-01-27T13:52:34;1.57;;;1.40;;
15049;SDS011;7622;42.724;23.250;2024-01-27T13:55:01;1.23;;;1.13;;
15049;SDS011;7622;42.724;23.250;2024-01-27T13:57:27;2.83;;;1.53;;
15049;SDS011;7622;42.724;23.250;2024-01-27T13:59:54;1.07;;;1.07;;
15049;SDS011;7622;42.724;23.250;2024-01-27T14:02:21;1.70;;;1.50;;
15049;SDS011;7622;42.724;23.250;2024-01-27T14:04:50;1.52;;;1.42;;
15049;SDS011;7622;42.724;23.250;2024-01-27T14:07:17;2.50;;;1.83;;
15049;SDS011;7622;42.724;23.250;2024-01-27T14:09:43;2.23;;;1.60;;
15049;SDS011;7622;42.724;23.250;2024-01-27T14:12:10;1.90;;;1.40;;
15049;SDS011;7622;42.724;23.250;2024-01-27T14:14:37;3.00;;;1.60;;
15049;SDS011;7622;42.724;23.250;2024-01-27T14:17:06;2.10;;;1.50;;
15049;SDS011;7622;42.724;23.250;2024-01-27T14:19:34;1.70;;;1.20;;
15049;SDS011;7622;42.724;23.250;2024-01-27T14:22:03;1.03;;;1.03;;
15049;SDS011;7622;42.724;23.250;2024-01-27T14:24:31;3.93;;;1.33;;
15049;SDS011;7622;42.724;23.250;2024-01-27T14:26:58;7.93;;;1.30;;
15049;SDS011;7622;42.724;23.250;2024-01-27T14:29:25;2.17;;;1.30;;
15049;SDS011;7622;42.724;23.250;2024-01-27T14:31:52;4.27;;;1.20;;
15049;SDS011;7622;42.724;23.250;2024-01-27T14:34:19;1.00;;;1.00;;
15049;SDS011;7622;42.724;23.250;2024-01-27T14:36:46;3.33;;;1.10;;
15049;SDS011;7622;42.724;23.250;2024-01-27T14:39:17;2.63;;;1.37;;
15049;SDS011;7622;42.724;23.250;2024-01-27T14:41:47;1.47;;;1.37;;
15049;SDS011;7622;42.724;23.250;2024-01-27T14:44:13;3.57;;;1.30;;
15049;SDS011;7622;42.724;23.250;2024-01-27T14:46:40;3.70;;;1.57;;